sensor_id;sensor_type;location;lat;lon;timestamp;pressure;altitude;pressure_sealevel;temperature;humidity
22031;BME280;11179;52.106;21.024;2023-05-22T00:00:05;100887.69;;;10.80;60.39
22031;BME280;11179;52.106;21.024;2023-05-22T00:02:34;100911.28;;;10.93;60.34
22031;BME280;11179;52.106;21.024;2023-05-22T00:05:06;100909.88;;;10.90;60.62
22031;BME280;11179;52.106;21.024;2023-05-22T00:07:31;100899.75;;;10.79;60.39
22031;BME280;11179;52.106;21.024;2023-05-22T00:09:57;100898.13;;;10.78;60.51
22031;BME280;11179;52.106;21.024;2023-05-22T00:12:22;100913.59;;;10.84;60.62
22031;BME280;11179;52.106;21.024;2023-05-22T00:14:48;100908.50;;;10.76;60.56
22031;BME280;11179;52.106;21.024;2023-05-22T00:17:13;100889.19;;;10.71;60.66
22031;BME280;11179;52.106;21.024;2023-05-22T00:19:39;100897.19;;;10.72;60.45
22031;BME280;11179;52.106;21.024;2023-05-22T00:22:05;100891.50;;;10.62;60.24
22031;BME280;11179;52.106;21.024;2023-05-22T00:24:30;100895.09;;;10.63;60.62
22031;BME280;11179;52.106;21.024;2023-05-22T00:26:56;100899.22;;;10.65;60.60
22031;BME280;11179;52.106;21.024;2023-05-22T00:29:22;100881.66;;;10.49;60.75
22031;BME280;11179;52.106;21.024;2023-05-22T00:31:47;100881.97;;;10.53;60.66
22031;BME280;11179;52.106;21.024;2023-05-22T00:34:13;100879.03;;;10.43;60.78
22031;BME280;11179;52.106;21.024;2023-05-22T00:36:38;100871.94;;;10.30;60.85
22031;BME280;11179;52.106;21.024;2023-05-22T00:39:03;100875.16;;;10.27;60.90
22031;BME280;11179;52.106;21.024;2023-05-22T00:41:30;100890.19;;;10.36;61.16
22031;BME280;11179;52.106;21.024;2023-05-22T00:43:58;100867.91;;;10.21;61.24
22031;BME280;11179;52.106;21.024;2023-05-22T00:46:24;100895.56;;;10.31;61.30
22031;BME280;11179;52.106;21.024;2023-05-22T00:48:49;100887.22;;;10.26;61.49
22031;BME280;11179;52.106;21.024;2023-05-22T00:51:18;100885.34;;;10.15;61.55
22031;BME280;11179;52.106;21.024;2023-05-22T00:53:45;100907.16;;;10.22;61.82
22031;BME280;11179;52.106;21.024;2023-05-22T00:56:11;100895.72;;;10.13;61.84
22031;BME280;11179;52.106;21.024;2023-05-22T00:58:39;100893.25;;;10.11;61.83
22031;BME280;11179;52.106;21.024;2023-05-22T01:01:05;100890.97;;;10.08;61.92
22031;BME280;11179;52.106;21.024;2023-05-22T01:03:35;100892.53;;;10.04;61.70
22031;BME280;11179;52.106;21.024;2023-05-22T01:06:01;100886.09;;;9.99;61.75
22031;BME280;11179;52.106;21.024;2023-05-22T01:08:27;100902.91;;;10.02;61.81
22031;BME280;11179;52.106;21.024;2023-05-22T01:11:01;100897.91;;;9.99;61.97
22031;BME280;11179;52.106;21.024;2023-05-22T01:24:35;100889.94;;;9.86;61.97
22031;BME280;11179;52.106;21.024;2023-05-22T01:27:29;100894.56;;;9.86;61.71
22031;BME280;11179;52.106;21.024;2023-05-22T01:30:16;100892.44;;;9.76;61.96
22031;BME280;11179;52.106;21.024;2023-05-22T01:32:45;100890.41;;;9.71;61.81
22031;BME280;11179;52.106;21.024;2023-05-22T01:35:14;100885.66;;;9.67;62.17
22031;BME280;11179;52.106;21.024;2023-05-22T01:37:41;100890.75;;;9.63;62.35
22031;BME280;11179;52.106;21.024;2023-05-22T01:40:07;100904.59;;;9.68;62.01
22031;BME280;11179;52.106;21.024;2023-05-22T01:42:33;100906.97;;;9.65;62.14
22031;BME280;11179;52.106;21.024;2023-05-22T01:44:58;100897.31;;;9.62;62.21
22031;BME280;11179;52.106;21.024;2023-05-22T01:47:24;100893.88;;;9.55;62.54
22031;BME280;11179;52.106;21.024;2023-05-22T01:49:49;100888.41;;;9.43;62.39
22031;BME280;11179;52.106;21.024;2023-05-22T01:57:41;100899.00;;;9.40;62.52
22031;BME280;11179;52.106;21.024;2023-05-22T02:00:09;100905.31;;;9.40;62.51
22031;BME280;11179;52.106;21.024;2023-05-22T02:02:42;100862.75;;;9.15;62.76
22031;BME280;11179;52.106;21.024;2023-05-22T02:05:10;100896.59;;;9.32;62.89
22031;BME280;11179;52.106;21.024;2023-05-22T02:07:39;100894.59;;;9.27;62.91
22031;BME280;11179;52.106;21.024;2023-05-22T02:10:06;100899.47;;;9.25;63.14
22031;BME280;11179;52.106;21.024;2023-05-22T02:12:34;100904.34;;;9.23;62.86
22031;BME280;11179;52.106;21.024;2023-05-22T02:15:00;100903.50;;;9.23;63.17
22031;BME280;11179;52.106;21.024;2023-05-22T02:17:26;100902.06;;;9.20;63.24
22031;BME280;11179;52.106;21.024;2023-05-22T02:19:51;100899.44;;;9.14;63.15
22031;BME280;11179;52.106;21.024;2023-05-22T02:22:17;100897.78;;;9.13;63.34
22031;BME280;11179;52.106;21.024;2023-05-22T02:24:45;100890.03;;;9.10;63.48
22031;BME280;11179;52.106;21.024;2023-05-22T02:27:11;100895.72;;;9.08;63.57
22031;BME280;11179;52.106;21.024;2023-05-22T02:29:37;100896.56;;;9.08;63.56
22031;BME280;11179;52.106;21.024;2023-05-22T02:32:02;100899.31;;;9.08;63.63
22031;BME280;11179;52.106;21.024;2023-05-22T02:34:28;100881.56;;;8.99;63.53
22031;BME280;11179;52.106;21.024;2023-05-22T02:36:58;100897.16;;;9.11;63.90
22031;BME280;11179;52.106;21.024;2023-05-22T02:39:27;100896.34;;;9.10;64.06
22031;BME280;11179;52.106;21.024;2023-05-22T02:41:52;100887.41;;;9.03;63.81
22031;BME280;11179;52.106;21.024;2023-05-22T02:44:17;100884.44;;;9.04;63.95
22031;BME280;11179;52.106;21.024;2023-05-22T02:46:43;100871.66;;;8.98;64.06
22031;BME280;11179;52.106;21.024;2023-05-22T02:49:08;100884.78;;;9.08;63.99
22031;BME280;11179;52.106;21.024;2023-05-22T02:51:33;100870.00;;;8.97;63.88
22031;BME280;11179;52.106;21.024;2023-05-22T02:53:59;100889.56;;;9.13;63.94
22031;BME280;11179;52.106;21.024;2023-05-22T02:56:24;100884.44;;;9.16;63.98
22031;BME280;11179;52.106;21.024;2023-05-22T02:58:51;100882.66;;;9.22;63.99
22031;BME280;11179;52.106;21.024;2023-05-22T03:01:17;100867.78;;;9.18;63.88
22031;BME280;11179;52.106;21.024;2023-05-22T03:03:42;100875.88;;;9.36;63.87
22031;BME280;11179;52.106;21.024;2023-05-22T03:06:07;100888.16;;;9.68;63.39
22031;BME280;11179;52.106;21.024;2023-05-22T03:08:34;100872.53;;;9.92;63.04
22031;BME280;11179;52.106;21.024;2023-05-22T03:11:02;100865.53;;;10.25;62.75
22031;BME280;11179;52.106;21.024;2023-05-22T03:13:28;100857.59;;;10.57;62.25
22031;BME280;11179;52.106;21.024;2023-05-22T03:15:53;100863.25;;;10.95;61.49
22031;BME280;11179;52.106;21.024;2023-05-22T03:18:18;100853.09;;;11.12;61.29
22031;BME280;11179;52.106;21.024;2023-05-22T03:20:44;100858.78;;;11.39;60.50
22031;BME280;11179;52.106;21.024;2023-05-22T03:23:10;100862.72;;;11.65;60.62
22031;BME280;11179;52.106;21.024;2023-05-22T03:25:36;100869.88;;;11.83;60.16
22031;BME280;11179;52.106;21.024;2023-05-22T03:28:01;100866.50;;;11.98;60.20
22031;BME280;11179;52.106;21.024;2023-05-22T03:30:26;100847.84;;;12.05;60.21
22031;BME280;11179;52.106;21.024;2023-05-22T03:32:52;100852.31;;;12.33;59.88
22031;BME280;11179;52.106;21.024;2023-05-22T03:35:18;100850.53;;;12.43;59.88
22031;BME280;11179;52.106;21.024;2023-05-22T03:37:47;100850.19;;;12.61;60.20
22031;BME280;11179;52.106;21.024;2023-05-22T03:40:12;100827.13;;;12.73;59.50
22031;BME280;11179;52.106;21.024;2023-05-22T03:42:37;100828.41;;;12.92;59.43
22031;BME280;11179;52.106;21.024;2023-05-22T03:45:03;100854.59;;;13.26;59.05
22031;BME280;11179;52.106;21.024;2023-05-22T03:47:29;100844.22;;;13.39;58.57
22031;BME280;11179;52.106;21.024;2023-05-22T03:49:54;100865.47;;;13.80;57.93
22031;BME280;11179;52.106;21.024;2023-05-22T03:52:20;100872.78;;;14.07;57.34
22031;BME280;11179;52.106;21.024;2023-05-22T03:54:46;100845.19;;;14.17;56.90
22031;BME280;11179;52.106;21.024;2023-05-22T03:57:11;100848.03;;;14.42;56.35
22031;BME280;11179;52.106;21.024;2023-05-22T03:59:36;100860.03;;;14.73;56.14
22031;BME280;11179;52.106;21.024;2023-05-22T04:02:02;100860.31;;;14.92;56.02
22031;BME280;11179;52.106;21.024;2023-05-22T04:04:27;100843.19;;;15.15;55.58
22031;BME280;11179;52.106;21.024;2023-05-22T04:06:53;100840.97;;;15.42;54.98
22031;BME280;11179;52.106;21.024;2023-05-22T04:09:18;100827.34;;;15.61;54.45
22031;BME280;11179;52.106;21.024;2023-05-22T04:11:44;100847.44;;;16.07;53.83
22031;BME280;11179;52.106;21.024;2023-05-22T04:14:11;100828.50;;;16.30;53.00
22031;BME280;11179;52.106;21.024;2023-05-22T04:16:36;100825.22;;;16.72;52.10
22031;BME280;11179;52.106;21.024;2023-05-22T04:19:01;100855.03;;;17.24;51.12
22031;BME280;11179;52.106;21.024;2023-05-22T04:21:30;100845.91;;;17.52;50.43
22031;BME280;11179;52.106;21.024;2023-05-22T04:23:58;100846.94;;;17.85;49.61
22031;BME280;11179;52.106;21.024;2023-05-22T04:26:24;100841.84;;;18.16;48.98
22031;BME280;11179;52.106;21.024;2023-05-22T04:28:50;100868.53;;;18.60;48.86
22031;BME280;11179;52.106;21.024;2023-05-22T04:31:15;100863.03;;;18.92;47.46
22031;BME280;11179;52.106;21.024;2023-05-22T04:33:41;100862.59;;;19.18;46.55
22031;BME280;11179;52.106;21.024;2023-05-22T04:36:07;100834.34;;;19.29;45.44
22031;BME280;11179;52.106;21.024;2023-05-22T04:38:34;100831.41;;;19.53;45.12
22031;BME280;11179;52.106;21.024;2023-05-22T04:41:04;100819.75;;;19.65;43.81
22031;BME280;11179;52.106;21.024;2023-05-22T04:43:29;100814.69;;;19.67;42.75
22031;BME280;11179;52.106;21.024;2023-05-22T04:45:56;100824.41;;;19.83;42.84
22031;BME280;11179;52.106;21.024;2023-05-22T04:48:21;100807.69;;;19.83;42.58
22031;BME280;11179;52.106;21.024;2023-05-22T04:50:50;100816.84;;;19.97;42.34
22031;BME280;11179;52.106;21.024;2023-05-22T04:53:16;100841.44;;;20.36;41.63
22031;BME280;11179;52.106;21.024;2023-05-22T04:55:42;100799.81;;;20.26;40.43
22031;BME280;11179;52.106;21.024;2023-05-22T04:58:08;100808.69;;;20.28;40.54
22031;BME280;11179;52.106;21.024;2023-05-22T05:00:33;100828.72;;;20.44;40.19
22031;BME280;11179;52.106;21.024;2023-05-22T05:02:59;100843.16;;;20.96;39.93
22031;BME280;11179;52.106;21.024;2023-05-22T05:05:24;100822.28;;;21.46;39.42
22031;BME280;11179;52.106;21.024;2023-05-22T05:07:49;100835.22;;;21.96;38.32
22031;BME280;11179;52.106;21.024;2023-05-22T05:10:16;100834.06;;;22.45;37.73
22031;BME280;11179;52.106;21.024;2023-05-22T05:12:42;100811.19;;;22.60;36.67
22031;BME280;11179;52.106;21.024;2023-05-22T05:15:08;100844.63;;;23.08;36.02
22031;BME280;11179;52.106;21.024;2023-05-22T05:17:33;100839.31;;;23.33;35.88
22031;BME280;11179;52.106;21.024;2023-05-22T05:19:59;100844.03;;;23.58;35.29
22031;BME280;11179;52.106;21.024;2023-05-22T05:22:24;100820.81;;;23.66;34.42
22031;BME280;11179;52.106;21.024;2023-05-22T05:24:50;100842.16;;;23.88;34.01
22031;BME280;11179;52.106;21.024;2023-05-22T05:27:15;100837.91;;;23.73;34.12
22031;BME280;11179;52.106;21.024;2023-05-22T05:29:41;100822.50;;;23.97;34.08
22031;BME280;11179;52.106;21.024;2023-05-22T05:32:07;100828.75;;;24.32;33.45
22031;BME280;11179;52.106;21.024;2023-05-22T05:34:33;100816.03;;;24.25;32.48
22031;BME280;11179;52.106;21.024;2023-05-22T05:37:00;100851.94;;;24.49;33.02
22031;BME280;11179;52.106;21.024;2023-05-22T05:39:26;100848.34;;;24.82;32.18
22031;BME280;11179;52.106;21.024;2023-05-22T05:41:52;100845.97;;;25.13;32.16
22031;BME280;11179;52.106;21.024;2023-05-22T05:44:17;100839.44;;;25.21;32.14
22031;BME280;11179;52.106;21.024;2023-05-22T05:46:42;100847.00;;;25.09;31.67
22031;BME280;11179;52.106;21.024;2023-05-22T05:49:08;100852.84;;;25.37;31.51
22031;BME280;11179;52.106;21.024;2023-05-22T05:51:34;100841.63;;;25.49;31.47
22031;BME280;11179;52.106;21.024;2023-05-22T05:54:00;100844.03;;;25.71;30.87
22031;BME280;11179;52.106;21.024;2023-05-22T05:56:25;100828.59;;;25.77;30.63
22031;BME280;11179;52.106;21.024;2023-05-22T05:58:51;100838.00;;;25.81;30.59
22031;BME280;11179;52.106;21.024;2023-05-22T06:01:16;100840.66;;;25.78;30.17
22031;BME280;11179;52.106;21.024;2023-05-22T06:03:42;100816.88;;;25.99;29.92
22031;BME280;11179;52.106;21.024;2023-05-22T06:06:08;100830.72;;;26.17;29.43
22031;BME280;11179;52.106;21.024;2023-05-22T06:08:33;100827.19;;;25.83;29.21
22031;BME280;11179;52.106;21.024;2023-05-22T06:10:59;100840.81;;;26.18;29.35
22031;BME280;11179;52.106;21.024;2023-05-22T06:13:24;100829.44;;;26.26;28.64
22031;BME280;11179;52.106;21.024;2023-05-22T06:15:49;100838.84;;;26.18;28.52
22031;BME280;11179;52.106;21.024;2023-05-22T06:18:15;100841.03;;;25.88;28.50
22031;BME280;11179;52.106;21.024;2023-05-22T06:20:41;100836.13;;;25.40;28.61
22031;BME280;11179;52.106;21.024;2023-05-22T06:23:07;100828.78;;;24.94;29.14
22031;BME280;11179;52.106;21.024;2023-05-22T06:25:32;100829.06;;;25.01;29.37
22031;BME280;11179;52.106;21.024;2023-05-22T06:27:58;100811.28;;;25.42;29.14
22031;BME280;11179;52.106;21.024;2023-05-22T06:30:25;100789.91;;;25.98;29.09
22031;BME280;11179;52.106;21.024;2023-05-22T06:32:50;100812.78;;;26.46;28.69
22031;BME280;11179;52.106;21.024;2023-05-22T06:35:16;100820.59;;;27.04;28.17
22031;BME280;11179;52.106;21.024;2023-05-22T06:37:42;100819.19;;;27.54;27.41
22031;BME280;11179;52.106;21.024;2023-05-22T06:40:08;100797.97;;;27.76;27.05
22031;BME280;11179;52.106;21.024;2023-05-22T06:42:34;100800.25;;;28.18;27.34
22031;BME280;11179;52.106;21.024;2023-05-22T06:44:59;100819.03;;;28.61;27.25
22031;BME280;11179;52.106;21.024;2023-05-22T06:47:25;100817.19;;;28.88;26.52
22031;BME280;11179;52.106;21.024;2023-05-22T06:49:50;100801.56;;;28.39;26.10
22031;BME280;11179;52.106;21.024;2023-05-22T06:52:16;100809.19;;;28.20;25.92
22031;BME280;11179;52.106;21.024;2023-05-22T06:54:41;100811.94;;;27.69;26.06
22031;BME280;11179;52.106;21.024;2023-05-22T06:57:08;100825.72;;;27.42;26.27
22031;BME280;11179;52.106;21.024;2023-05-22T06:59:33;100821.19;;;27.85;26.83
22031;BME280;11179;52.106;21.024;2023-05-22T07:01:59;100805.22;;;28.24;25.94
22031;BME280;11179;52.106;21.024;2023-05-22T07:04:25;100812.56;;;28.60;25.58
22031;BME280;11179;52.106;21.024;2023-05-22T07:06:50;100803.66;;;28.42;25.51
22031;BME280;11179;52.106;21.024;2023-05-22T07:09:18;100825.72;;;28.72;25.35
22031;BME280;11179;52.106;21.024;2023-05-22T07:11:44;100799.75;;;29.05;25.53
22031;BME280;11179;52.106;21.024;2023-05-22T07:14:10;100800.28;;;29.30;25.04
22031;BME280;11179;52.106;21.024;2023-05-22T07:16:37;100814.59;;;28.98;24.90
22031;BME280;11179;52.106;21.024;2023-05-22T07:19:02;100800.38;;;28.95;25.27
22031;BME280;11179;52.106;21.024;2023-05-22T07:21:27;100806.31;;;29.09;25.10
22031;BME280;11179;52.106;21.024;2023-05-22T07:23:56;100789.09;;;28.75;24.57
22031;BME280;11179;52.106;21.024;2023-05-22T07:26:21;100813.06;;;28.66;24.71
22031;BME280;11179;52.106;21.024;2023-05-22T07:28:47;100817.44;;;28.63;24.80
22031;BME280;11179;52.106;21.024;2023-05-22T07:31:12;100791.75;;;28.33;25.03
22031;BME280;11179;52.106;21.024;2023-05-22T07:33:37;100804.44;;;28.59;25.65
22031;BME280;11179;52.106;21.024;2023-05-22T07:36:03;100811.22;;;28.73;24.18
22031;BME280;11179;52.106;21.024;2023-05-22T07:38:34;100808.56;;;28.45;23.94
22031;BME280;11179;52.106;21.024;2023-05-22T07:41:00;100803.91;;;28.02;23.41
22031;BME280;11179;52.106;21.024;2023-05-22T07:43:29;100809.03;;;28.47;23.96
22031;BME280;11179;52.106;21.024;2023-05-22T07:45:54;100796.78;;;28.78;23.87
22031;BME280;11179;52.106;21.024;2023-05-22T07:48:22;100802.91;;;29.00;23.29
22031;BME280;11179;52.106;21.024;2023-05-22T07:50:48;100813.03;;;28.46;22.86
22031;BME280;11179;52.106;21.024;2023-05-22T07:53:14;100806.06;;;27.62;23.77
22031;BME280;11179;52.106;21.024;2023-05-22T07:55:40;100788.25;;;27.42;24.19
22031;BME280;11179;52.106;21.024;2023-05-22T07:58:06;100801.34;;;27.97;24.39
22031;BME280;11179;52.106;21.024;2023-05-22T08:00:32;100786.47;;;28.51;23.48
22031;BME280;11179;52.106;21.024;2023-05-22T08:02:58;100793.91;;;29.13;23.35
22031;BME280;11179;52.106;21.024;2023-05-22T08:05:23;100788.72;;;29.61;22.12
22031;BME280;11179;52.106;21.024;2023-05-22T08:07:49;100788.16;;;29.29;21.65
22031;BME280;11179;52.106;21.024;2023-05-22T08:10:15;100780.88;;;28.90;21.60
22031;BME280;11179;52.106;21.024;2023-05-22T08:12:41;100776.03;;;28.17;21.94
22031;BME280;11179;52.106;21.024;2023-05-22T08:15:07;100782.56;;;27.26;23.01
22031;BME280;11179;52.106;21.024;2023-05-22T08:17:32;100789.91;;;27.15;23.95
22031;BME280;11179;52.106;21.024;2023-05-22T08:19:58;100781.50;;;27.47;24.04
22031;BME280;11179;52.106;21.024;2023-05-22T08:22:23;100778.06;;;27.69;23.82
22031;BME280;11179;52.106;21.024;2023-05-22T08:24:48;100787.91;;;28.06;23.03
22031;BME280;11179;52.106;21.024;2023-05-22T08:27:13;100787.94;;;28.26;22.65
22031;BME280;11179;52.106;21.024;2023-05-22T08:29:39;100784.09;;;28.34;22.58
22031;BME280;11179;52.106;21.024;2023-05-22T08:32:05;100779.13;;;28.62;22.76
22031;BME280;11179;52.106;21.024;2023-05-22T08:34:30;100778.81;;;28.87;22.90
22031;BME280;11179;52.106;21.024;2023-05-22T08:36:57;100763.31;;;29.00;22.30
22031;BME280;11179;52.106;21.024;2023-05-22T08:39:23;100768.44;;;29.56;22.06
22031;BME280;11179;52.106;21.024;2023-05-22T08:41:49;100778.41;;;29.07;21.84
22031;BME280;11179;52.106;21.024;2023-05-22T08:44:14;100776.06;;;29.09;22.51
22031;BME280;11179;52.106;21.024;2023-05-22T08:46:40;100777.34;;;29.58;22.37
22031;BME280;11179;52.106;21.024;2023-05-22T08:49:08;100779.34;;;29.57;22.31
22031;BME280;11179;52.106;21.024;2023-05-22T08:51:37;100771.97;;;28.88;22.27
22031;BME280;11179;52.106;21.024;2023-05-22T08:54:07;100750.09;;;28.65;23.06
22031;BME280;11179;52.106;21.024;2023-05-22T08:56:33;100765.19;;;28.73;22.98
22031;BME280;11179;52.106;21.024;2023-05-22T08:58:59;100769.75;;;28.42;22.51
22031;BME280;11179;52.106;21.024;2023-05-22T09:01:27;100766.75;;;28.00;22.78
22031;BME280;11179;52.106;21.024;2023-05-22T09:03:55;100771.31;;;27.89;23.54
22031;BME280;11179;52.106;21.024;2023-05-22T09:06:23;100744.63;;;28.02;22.82
22031;BME280;11179;52.106;21.024;2023-05-22T09:08:48;100741.56;;;28.27;22.65
22031;BME280;11179;52.106;21.024;2023-05-22T09:11:14;100770.84;;;28.73;22.38
22031;BME280;11179;52.106;21.024;2023-05-22T09:13:39;100741.75;;;28.34;22.85
22031;BME280;11179;52.106;21.024;2023-05-22T09:16:09;100756.09;;;28.09;23.39
22031;BME280;11179;52.106;21.024;2023-05-22T09:18:36;100755.44;;;28.16;23.83
22031;BME280;11179;52.106;21.024;2023-05-22T09:21:02;100759.09;;;28.17;23.97
22031;BME280;11179;52.106;21.024;2023-05-22T09:23:28;100758.81;;;28.41;23.53
22031;BME280;11179;52.106;21.024;2023-05-22T09:25:55;100744.59;;;28.18;22.87
22031;BME280;11179;52.106;21.024;2023-05-22T09:28:21;100763.28;;;28.23;22.59
22031;BME280;11179;52.106;21.024;2023-05-22T09:30:48;100735.25;;;27.35;22.98
22031;BME280;11179;52.106;21.024;2023-05-22T09:33:15;100761.59;;;27.39;23.24
22031;BME280;11179;52.106;21.024;2023-05-22T09:35:41;100752.31;;;27.39;23.37
22031;BME280;11179;52.106;21.024;2023-05-22T09:38:09;100758.97;;;27.19;23.29
22031;BME280;11179;52.106;21.024;2023-05-22T09:40:36;100746.19;;;27.37;22.88
22031;BME280;11179;52.106;21.024;2023-05-22T09:43:06;100741.63;;;27.32;23.27
22031;BME280;11179;52.106;21.024;2023-05-22T09:45:36;100745.25;;;27.33;23.83
22031;BME280;11179;52.106;21.024;2023-05-22T09:48:07;100745.56;;;27.75;22.84
22031;BME280;11179;52.106;21.024;2023-05-22T09:50:34;100733.91;;;27.92;23.03
22031;BME280;11179;52.106;21.024;2023-05-22T09:53:00;100742.16;;;28.17;23.00
22031;BME280;11179;52.106;21.024;2023-05-22T09:55:27;100742.53;;;27.99;22.73
22031;BME280;11179;52.106;21.024;2023-05-22T09:57:54;100710.28;;;27.50;22.63
22031;BME280;11179;52.106;21.024;2023-05-22T10:00:21;100736.25;;;27.12;23.12
22031;BME280;11179;52.106;21.024;2023-05-22T10:02:52;100738.81;;;26.61;23.77
22031;BME280;11179;52.106;21.024;2023-05-22T10:05:17;100708.94;;;25.92;23.67
22031;BME280;11179;52.106;21.024;2023-05-22T10:07:49;100735.28;;;25.87;23.84
22031;BME280;11179;52.106;21.024;2023-05-22T10:10:17;100715.84;;;25.70;24.23
22031;BME280;11179;52.106;21.024;2023-05-22T10:12:49;100738.28;;;25.33;24.38
22031;BME280;11179;52.106;21.024;2023-05-22T10:15:16;100738.94;;;25.06;24.95
22031;BME280;11179;52.106;21.024;2023-05-22T10:17:43;100729.63;;;25.26;24.46
22031;BME280;11179;52.106;21.024;2023-05-22T10:20:09;100733.63;;;25.50;24.99
22031;BME280;11179;52.106;21.024;2023-05-22T10:22:36;100737.88;;;25.80;23.64
22031;BME280;11179;52.106;21.024;2023-05-22T10:25:02;100731.78;;;25.78;23.42
22031;BME280;11179;52.106;21.024;2023-05-22T10:27:28;100718.44;;;25.75;23.58
22031;BME280;11179;52.106;21.024;2023-05-22T10:41:17;100719.25;;;25.76;23.47
22031;BME280;11179;52.106;21.024;2023-05-22T10:43:43;100728.50;;;25.64;23.74
22031;BME280;11179;52.106;21.024;2023-05-22T10:46:12;100718.66;;;25.58;23.33
22031;BME280;11179;52.106;21.024;2023-05-22T10:48:38;100722.03;;;25.51;23.90
22031;BME280;11179;52.106;21.024;2023-05-22T10:51:07;100718.78;;;25.61;23.24
22031;BME280;11179;52.106;21.024;2023-05-22T10:53:33;100714.94;;;25.66;23.21
22031;BME280;11179;52.106;21.024;2023-05-22T10:56:16;100679.84;;;25.27;23.70
22031;BME280;11179;52.106;21.024;2023-05-22T10:58:44;100719.81;;;25.57;23.61
22031;BME280;11179;52.106;21.024;2023-05-22T11:01:16;100713.00;;;25.33;23.42
22031;BME280;11179;52.106;21.024;2023-05-22T11:04:08;100692.47;;;25.21;24.16
22031;BME280;11179;52.106;21.024;2023-05-22T11:06:36;100706.69;;;25.49;24.17
22031;BME280;11179;52.106;21.024;2023-05-22T11:09:29;100693.47;;;25.61;23.77
22031;BME280;11179;52.106;21.024;2023-05-22T11:14:46;100680.78;;;25.43;24.73
22031;BME280;11179;52.106;21.024;2023-05-22T11:17:12;100693.44;;;25.49;23.86
22031;BME280;11179;52.106;21.024;2023-05-22T11:19:39;100702.22;;;25.48;24.54
22031;BME280;11179;52.106;21.024;2023-05-22T11:22:06;100699.41;;;25.48;24.25
22031;BME280;11179;52.106;21.024;2023-05-22T11:24:35;100688.78;;;25.29;23.51
22031;BME280;11179;52.106;21.024;2023-05-22T11:27:11;100664.50;;;25.24;24.50
22031;BME280;11179;52.106;21.024;2023-05-22T11:29:39;100679.28;;;25.58;23.88
22031;BME280;11179;52.106;21.024;2023-05-22T11:32:06;100691.25;;;25.55;23.90
22031;BME280;11179;52.106;21.024;2023-05-22T11:34:32;100679.38;;;25.37;24.07
22031;BME280;11179;52.106;21.024;2023-05-22T11:36:58;100678.34;;;25.42;24.87
22031;BME280;11179;52.106;21.024;2023-05-22T11:39:24;100659.25;;;25.59;24.68
22031;BME280;11179;52.106;21.024;2023-05-22T11:41:50;100679.28;;;25.82;24.62
22031;BME280;11179;52.106;21.024;2023-05-22T11:44:15;100671.44;;;25.76;24.01
22031;BME280;11179;52.106;21.024;2023-05-22T11:46:40;100650.22;;;25.78;23.78
22031;BME280;11179;52.106;21.024;2023-05-22T11:49:08;100675.78;;;25.61;24.08
22031;BME280;11179;52.106;21.024;2023-05-22T11:51:37;100655.38;;;25.40;24.31
22031;BME280;11179;52.106;21.024;2023-05-22T11:54:03;100679.50;;;25.41;24.16
22031;BME280;11179;52.106;21.024;2023-05-22T11:56:28;100659.91;;;24.95;23.58
22031;BME280;11179;52.106;21.024;2023-05-22T11:58:55;100659.47;;;24.73;24.09
22031;BME280;11179;52.106;21.024;2023-05-22T12:01:20;100637.88;;;24.52;24.78
22031;BME280;11179;52.106;21.024;2023-05-22T12:03:45;100668.94;;;24.68;24.77
22031;BME280;11179;52.106;21.024;2023-05-22T12:06:11;100661.81;;;24.71;24.81
22031;BME280;11179;52.106;21.024;2023-05-22T12:08:36;100626.84;;;24.35;24.74
22031;BME280;11179;52.106;21.024;2023-05-22T12:11:03;100658.16;;;24.37;24.79
22031;BME280;11179;52.106;21.024;2023-05-22T12:13:29;100639.00;;;24.39;24.63
22031;BME280;11179;52.106;21.024;2023-05-22T12:15:58;100643.66;;;24.68;24.32
22031;BME280;11179;52.106;21.024;2023-05-22T12:18:25;100646.69;;;24.96;24.32
22031;BME280;11179;52.106;21.024;2023-05-22T12:20:51;100651.22;;;24.88;24.00
22031;BME280;11179;52.106;21.024;2023-05-22T12:23:22;100655.72;;;24.69;25.24
22031;BME280;11179;52.106;21.024;2023-05-22T12:25:55;100647.78;;;24.83;24.72
22031;BME280;11179;52.106;21.024;2023-05-22T12:28:20;100627.16;;;24.67;24.95
22031;BME280;11179;52.106;21.024;2023-05-22T12:30:54;100636.22;;;24.84;25.56
22031;BME280;11179;52.106;21.024;2023-05-22T12:33:24;100633.53;;;24.88;24.86
22031;BME280;11179;52.106;21.024;2023-05-22T12:35:50;100616.50;;;24.60;24.50
22031;BME280;11179;52.106;21.024;2023-05-22T12:38:20;100637.19;;;24.55;24.59
22031;BME280;11179;52.106;21.024;2023-05-22T12:40:46;100629.44;;;24.19;24.93
22031;BME280;11179;52.106;21.024;2023-05-22T12:43:11;100640.63;;;23.99;25.02
22031;BME280;11179;52.106;21.024;2023-05-22T12:45:37;100631.06;;;24.00;25.35
22031;BME280;11179;52.106;21.024;2023-05-22T12:48:05;100621.56;;;24.13;25.52
22031;BME280;11179;52.106;21.024;2023-05-22T12:50:30;100613.22;;;24.04;25.08
22031;BME280;11179;52.106;21.024;2023-05-22T12:52:56;100629.84;;;24.09;25.38
22031;BME280;11179;52.106;21.024;2023-05-22T12:58:43;100605.22;;;23.94;25.74
22031;BME280;11179;52.106;21.024;2023-05-22T13:01:11;100626.47;;;24.16;25.37
22031;BME280;11179;52.106;21.024;2023-05-22T13:03:40;100606.97;;;23.99;25.66
22031;BME280;11179;52.106;21.024;2023-05-22T13:06:06;100628.31;;;24.12;25.57
22031;BME280;11179;52.106;21.024;2023-05-22T13:08:31;100627.38;;;24.08;25.47
22031;BME280;11179;52.106;21.024;2023-05-22T13:10:56;100612.47;;;23.95;26.14